Time;durP1;ratioP1;P1;durP2;ratioP2;P2;SDS_P1;SDS_P2;PMS_P1;PMS_P2;Temp;Humidity;BMP_temperature;BMP_pressure;BME280_temperature;BME280_humidity;BME280_pressure;Samples;Min_cycle;Max_cycle;Signal;HPM_P1;HPM_P2
2023/06/28 03:04:15;;;;;;;;;;;;;;;;;;;;;
2023/06/28 03:07:25;;;;;;;9.45;3.90;;;;;;;;;;4851972;29;92214;-92
2023/06/28 03:18:16;;;;;;;6.30;2.97;;;;;;;;;;4871626;29;92324;-93
2023/06/28 03:25:04;;;;;;;6.53;3.15;;;;;;;;;;5015060;23;95842;-93
2023/06/28 03:37:04;;;;;;;9.03;3.17;;;;;;;;;;4831796;29;91879;-92
2023/06/28 03:40:54;;;;;;;12.00;3.30;;;;;;;;;;4816989;29;91804;-92
2023/06/28 03:48:10;;;;;;;7.35;3.20;;;;;;;;;;4828226;29;92527;-92
2023/06/28 03:55:12;;;;;;;6.32;3.45;;;;;;;;;;4910532;28;94245;-92
2023/06/28 04:48:25;;;;;;;9.88;4.68;;;;;;;;;;4880560;28;92702;-92
2023/06/28 05:36:26;;;;;;;14.98;5.90;;;;;;;;;;4886925;28;94438;-92
2023/06/28 05:43:00;;;;;;;;;;;;;;;;;;;;;
2023/06/28 05:46:16;;;;;;;14.02;6.28;;;;;;;;;;5033682;23;93662;-92
2023/06/28 05:49:51;;;;;;;13.15;6.32;;;;;;;;;;4926080;28;93034;-92
2023/06/28 05:53:31;;;;;;;;;;;;;;;;;;;;;
2023/06/28 06:34:28;;;;;;;12.55;8.23;;;;;;;;;;4948497;28;92330;-92
2023/06/28 06:37:53;;;;;;;16.70;8.45;;;;;;;;;;4955948;28;91667;-92
2023/06/28 09:35:36;;;;;;;21.52;8.25;;;;;;;;;;4933491;23;94765;-77
2023/06/28 09:38:07;;;;;;;16.67;8.45;;;;;;;;;;4921275;28;92515;-77
2023/06/28 09:40:34;;;;;;;19.52;8.60;;;;;;;;;;4890285;28;92901;-77
2023/06/28 09:43:00;;;;;;;15.98;7.72;;;;;;;;;;4897122;28;94471;-77
2023/06/28 09:45:28;;;;;;;15.13;7.80;;;;;;;;;;4907880;28;92715;-77
2023/06/28 09:47:59;;;;;;;22.95;7.40;;;;;;;;;;4906676;28;92638;-77
2023/06/28 09:50:39;;;;;;;24.38;8.88;;;;;;;;;;4904938;28;94885;-77
2023/06/28 09:53:13;;;;;;;18.70;8.40;;;;;;;;;;4914153;28;92516;-77
2023/06/28 09:55:41;;;;;;;19.30;8.32;;;;;;;;;;4921099;28;91629;-77
2023/06/28 09:58:09;;;;;;;19.30;8.02;;;;;;;;;;4900988;28;92296;-76
2023/06/28 10:00:38;;;;;;;11.73;7.72;;;;;;;;;;4913895;28;93573;-77
2023/06/28 10:03:09;;;;;;;19.60;8.95;;;;;;;;;;4902911;28;92247;-77
2023/06/28 10:05:37;;;;;;;22.85;8.50;;;;;;;;;;4916962;28;92403;-77
2023/06/28 10:08:06;;;;;;;19.05;7.90;;;;;;;;;;4915074;28;94802;-77
2023/06/28 10:10:34;;;;;;;14.18;7.70;;;;;;;;;;4906768;28;95355;-78
2023/06/28 10:13:06;;;;;;;15.30;8.15;;;;;;;;;;4922522;28;92451;-78
2023/06/28 10:15:38;;;;;;;19.08;9.25;;;;;;;;;;4910513;28;93157;-78
2023/06/28 10:18:05;;;;;;;14.98;8.82;;;;;;;;;;4896299;28;92480;-79
2023/06/28 10:20:32;;;;;;;18.20;8.75;;;;;;;;;;4908578;28;94686;-77
2023/06/28 10:22:59;;;;;;;26.50;8.95;;;;;;;;;;4895591;28;93498;-77
2023/06/28 10:25:27;;;;;;;15.70;8.38;;;;;;;;;;4909194;28;92090;-77
2023/06/28 10:27:54;;;;;;;16.83;8.60;;;;;;;;;;4905830;28;92584;-77
2023/06/28 10:30:21;;;;;;;14.82;9.18;;;;;;;;;;4898484;28;95233;-77
2023/06/28 10:32:48;;;;;;;17.35;9.05;;;;;;;;;;4904110;28;95086;-77
2023/06/28 10:35:15;;;;;;;17.17;9.13;;;;;;;;;;4893304;28;96034;-77
2023/06/28 10:37:42;;;;;;;20.35;8.77;;;;;;;;;;4911483;28;92284;-78
2023/06/28 10:40:09;;;;;;;20.00;8.98;;;;;;;;;;4923125;28;92514;-77
2023/06/28 10:42:37;;;;;;;30.33;10.07;;;;;;;;;;4916129;28;92115;-77
2023/06/28 10:45:04;;;;;;;23.17;9.45;;;;;;;;;;4919901;28;92663;-78
2023/06/28 10:47:33;;;;;;;20.15;9.93;;;;;;;;;;4899907;28;92981;-77
2023/06/28 10:50:20;;;;;;;20.77;9.30;;;;;;;;;;4903515;28;94118;-78
2023/06/28 10:52:47;;;;;;;20.25;10.05;;;;;;;;;;4912362;28;92456;-78
2023/06/28 10:55:17;;;;;;;21.75;10.05;;;;;;;;;;4920809;28;92511;-78
2023/06/28 10:58:02;;;;;;;24.10;8.90;;;;;;;;;;4916845;28;94755;-78
2023/06/28 11:00:42;;;;;;;19.58;10.38;;;;;;;;;;4914517;28;94522;-78
2023/06/28 11:03:09;;;;;;;22.85;10.77;;;;;;;;;;4918566;28;92440;-78
2023/06/28 11:05:53;;;;;;;18.23;10.63;;;;;;;;;;4917462;28;92535;-78
2023/06/28 11:08:21;;;;;;;19.73;10.73;;;;;;;;;;4916472;28;93056;-78
2023/06/28 11:10:48;;;;;;;24.00;11.35;;;;;;;;;;4903678;28;94041;-77
2023/06/28 11:13:33;;;;;;;29.65;10.77;;;;;;;;;;4916083;28;92411;-78
2023/06/28 11:16:11;;;;;;;18.75;10.40;;;;;;;;;;4901338;28;91992;-78
2023/06/28 11:18:38;;;;;;;19.30;9.98;;;;;;;;;;4908009;28;94670;-77
2023/06/28 11:21:05;;;;;;;21.90;11.57;;;;;;;;;;4903766;28;95217;-78
2023/06/28 11:23:36;;;;;;;20.85;10.85;;;;;;;;;;4882855;28;94868;-77
2023/06/28 11:26:06;;;;;;;19.60;10.90;;;;;;;;;;4886066;28;94257;-78
2023/06/28 11:28:33;;;;;;;22.13;12.82;;;;;;;;;;4903452;28;92633;-78
2023/06/28 11:31:12;;;;;;;32.60;12.55;;;;;;;;;;4910213;28;92398;-78
2023/06/28 11:33:39;;;;;;;21.73;12.25;;;;;;;;;;4905783;28;93201;-78
2023/06/28 11:36:06;;;;;;;21.60;12.38;;;;;;;;;;4906426;28;93951;-78
2023/06/28 11:38:34;;;;;;;27.30;12.82;;;;;;;;;;4917715;28;93046;-78
2023/06/28 11:41:02;;;;;;;22.23;13.90;;;;;;;;;;4901928;28;92044;-77
2023/06/28 11:43:28;;;;;;;23.40;13.82;;;;;;;;;;4926291;28;93294;-77
2023/06/28 11:45:55;;;;;;;22.63;12.60;;;;;;;;;;4912835;28;92670;-77
2023/06/28 11:48:22;;;;;;;23.65;13.30;;;;;;;;;;4905038;28;94897;-78
2023/06/28 11:51:15;;;;;;;17.80;10.80;;;;;;;;;;4913002;28;95404;-77
2023/06/28 11:53:46;;;;;;;26.02;13.00;;;;;;;;;;4906743;28;92758;-77
2023/06/28 11:56:13;;;;;;;21.10;13.30;;;;;;;;;;4910645;28;92464;-77
2023/06/28 11:58:39;;;;;;;25.75;14.05;;;;;;;;;;4913838;28;92069;-78
2023/06/28 12:01:18;;;;;;;24.65;13.48;;;;;;;;;;4918790;28;92709;-78
2023/06/28 12:03:45;;;;;;;27.45;13.85;;;;;;;;;;4915312;28;92197;-78
2023/06/28 12:06:12;;;;;;;28.90;12.95;;;;;;;;;;4906357;28;93799;-78
2023/06/28 12:08:40;;;;;;;22.13;13.90;;;;;;;;;;4921622;28;93804;-78
2023/06/28 12:11:08;;;;;;;23.27;14.60;;;;;;;;;;4921076;28;93622;-78
2023/06/28 12:13:34;;;;;;;26.52;15.02;;;;;;;;;;4920308;28;96833;-77
2023/06/28 12:16:30;;;;;;;24.55;14.52;;;;;;;;;;4930380;28;92119;-77
2023/06/28 12:19:01;;;;;;;23.80;13.60;;;;;;;;;;4907269;28;92559;-78
2023/06/28 12:21:28;;;;;;;22.20;14.87;;;;;;;;;;4903529;28;92523;-77
2023/06/28 12:24:14;;;;;;;22.20;14.15;;;;;;;;;;4915153;28;92322;-77
2023/06/28 12:26:45;;;;;;;24.42;14.18;;;;;;;;;;4906378;28;92509;-78
2023/06/28 12:29:12;;;;;;;24.20;13.52;;;;;;;;;;4907554;28;93434;-79
2023/06/28 12:31:40;;;;;;;24.25;13.52;;;;;;;;;;4916532;28;92096;-78
2023/06/28 12:34:07;;;;;;;24.63;13.60;;;;;;;;;;4906969;28;92479;-79
2023/06/28 12:36:33;;;;;;;26.40;13.65;;;;;;;;;;4918316;28;92735;-78
2023/06/28 12:39:00;;;;;;;25.42;14.13;;;;;;;;;;4900683;28;95123;-79
2023/06/28 12:41:26;;;;;;;25.38;14.73;;;;;;;;;;4920055;28;92264;-79
2023/06/28 12:43:54;;;;;;;34.53;15.45;;;;;;;;;;4922154;28;92455;-79
2023/06/28 12:46:20;;;;;;;36.65;16.60;;;;;;;;;;4914501;28;93950;-79
2023/06/28 12:48:48;;;;;;;30.33;15.45;;;;;;;;;;4922783;28;92935;-79
2023/06/28 12:51:15;;;;;;;25.20;14.63;;;;;;;;;;4924029;28;92522;-78
2023/06/28 12:53:41;;;;;;;32.00;16.13;;;;;;;;;;4907425;28;92447;-79
2023/06/28 12:56:08;;;;;;;31.65;15.63;;;;;;;;;;4905817;28;92098;-79
2023/06/28 12:58:35;;;;;;;24.88;14.18;;;;;;;;;;4893812;28;93242;-78
2023/06/28 13:01:03;;;;;;;24.48;14.63;;;;;;;;;;4908956;28;92456;-78
2023/06/28 13:03:29;;;;;;;30.17;14.40;;;;;;;;;;4916780;28;94619;-78
2023/06/28 13:05:56;;;;;;;31.30;14.20;;;;;;;;;;4902441;28;97031;-78
2023/06/28 13:08:22;;;;;;;18.38;12.52;;;;;;;;;;4926392;28;92487;-78
2023/06/28 13:10:49;;;;;;;30.48;13.35;;;;;;;;;;4906925;28;92284;-78
2023/06/28 13:13:15;;;;;;;28.65;14.77;;;;;;;;;;4906168;28;93909;-78
2023/06/28 13:15:42;;;;;;;26.85;14.77;;;;;;;;;;4905795;28;92365;-77
2023/06/28 13:18:09;;;;;;;26.55;14.90;;;;;;;;;;4922671;28;93710;-78
2023/06/28 13:20:35;;;;;;;26.30;14.60;;;;;;;;;;4906667;28;92106;-78
2023/06/28 13:23:03;;;;;;;29.45;13.93;;;;;;;;;;4917055;28;92786;-78
2023/06/28 13:25:30;;;;;;;26.60;13.70;;;;;;;;;;4903221;28;92318;-77
2023/06/28 13:27:56;;;;;;;26.40;14.50;;;;;;;;;;4907451;28;94787;-77
2023/06/28 13:30:23;;;;;;;28.88;14.70;;;;;;;;;;4924229;28;92512;-78
2023/06/28 13:32:52;;;;;;;30.38;15.93;;;;;;;;;;4918165;28;92364;-78
2023/06/28 13:35:19;;;;;;;21.17;12.85;;;;;;;;;;4900070;28;92428;-77
2023/06/28 13:37:48;;;;;;;29.40;14.48;;;;;;;;;;4920652;28;92241;-77
2023/06/28 13:40:15;;;;;;;23.45;14.85;;;;;;;;;;4902817;28;92583;-78
2023/06/28 13:42:43;;;;;;;29.67;16.48;;;;;;;;;;4921162;28;92057;-78
2023/06/28 13:45:09;;;;;;;25.70;15.23;;;;;;;;;;4919233;28;92259;-77
2023/06/28 13:47:36;;;;;;;24.20;15.38;;;;;;;;;;4912062;28;94442;-77
2023/06/28 13:50:04;;;;;;;30.52;16.73;;;;;;;;;;4906475;28;92998;-77
2023/06/28 13:52:31;;;;;;;37.78;17.10;;;;;;;;;;4916795;28;94544;-77
2023/06/28 13:54:57;;;;;;;29.08;15.73;;;;;;;;;;4911910;28;92491;-78
2023/06/28 13:57:24;;;;;;;28.67;15.77;;;;;;;;;;4903254;28;92309;-77
2023/06/28 13:59:51;;;;;;;27.98;15.30;;;;;;;;;;4904769;28;92591;-77
2023/06/28 14:02:17;;;;;;;31.50;15.50;;;;;;;;;;4900720;28;93367;-77
2023/06/28 14:04:44;;;;;;;32.45;16.33;;;;;;;;;;4922015;28;92842;-77
2023/06/28 14:07:10;;;;;;;32.17;16.30;;;;;;;;;;4913635;28;94749;-77
2023/06/28 14:09:40;;;;;;;31.45;17.15;;;;;;;;;;4906668;28;92199;-78
2023/06/28 14:12:07;;;;;;;25.45;14.25;;;;;;;;;;4925680;28;92561;-78
2023/06/28 14:14:34;;;;;;;28.63;15.88;;;;;;;;;;4898741;28;93338;-77
2023/06/28 14:17:00;;;;;;;23.13;12.80;;;;;;;;;;4913646;28;94800;-77
2023/06/28 14:19:27;;;;;;;25.52;12.57;;;;;;;;;;4925823;28;92790;-77
2023/06/28 14:21:54;;;;;;;23.33;13.52;;;;;;;;;;4902356;28;95229;-78
2023/06/28 14:24:20;;;;;;;23.23;13.90;;;;;;;;;;4905192;28;93950;-77
2023/06/28 14:26:48;;;;;;;27.27;14.02;;;;;;;;;;4901247;28;92514;-78
2023/06/28 14:29:15;;;;;;;31.38;15.20;;;;;;;;;;4918105;28;92884;-77
2023/06/28 14:31:42;;;;;;;29.70;15.95;;;;;;;;;;4897512;28;92622;-77
2023/06/28 14:34:09;;;;;;;33.80;17.23;;;;;;;;;;4920054;28;91737;-77
2023/06/28 14:36:36;;;;;;;29.83;17.95;;;;;;;;;;4924675;28;92294;-77
2023/06/28 14:39:02;;;;;;;36.22;16.92;;;;;;;;;;4903151;28;92880;-77
2023/06/28 14:41:29;;;;;;;38.80;18.45;;;;;;;;;;4904196;28;94693;-77
2023/06/28 14:43:56;;;;;;;35.63;18.15;;;;;;;;;;4919966;28;94127;-77
2023/06/28 14:46:22;;;;;;;32.33;17.50;;;;;;;;;;4884954;28;92635;-78
2023/06/28 14:48:49;;;;;;;28.05;16.83;;;;;;;;;;4930170;28;92987;-77
2023/06/28 14:51:15;;;;;;;29.10;18.02;;;;;;;;;;4918368;28;92452;-77
2023/06/28 14:53:43;;;;;;;36.20;19.75;;;;;;;;;;4908189;28;92619;-77
2023/06/28 14:56:09;;;;;;;35.55;19.15;;;;;;;;;;4943272;28;91741;-77
2023/06/28 14:58:38;;;;;;;32.72;18.90;;;;;;;;;;4923933;28;92349;-77
2023/06/28 15:01:05;;;;;;;34.70;19.75;;;;;;;;;;4921121;28;95510;-78
2023/06/28 15:03:31;;;;;;;34.05;19.40;;;;;;;;;;4906371;28;92416;-77
2023/06/28 15:05:58;;;;;;;28.45;16.98;;;;;;;;;;4922425;28;96016;-77
2023/06/28 15:08:25;;;;;;;31.25;17.90;;;;;;;;;;4924173;28;92866;-77
2023/06/28 15:10:51;;;;;;;33.95;18.65;;;;;;;;;;4882692;28;94183;-77
2023/06/28 15:13:20;;;;;;;35.85;17.95;;;;;;;;;;4901546;28;93524;-77
2023/06/28 15:15:46;;;;;;;34.72;18.10;;;;;;;;;;4919006;28;93948;-78
2023/06/28 15:18:13;;;;;;;28.40;17.27;;;;;;;;;;4921229;28;92396;-77
2023/06/28 15:20:39;;;;;;;32.88;16.35;;;;;;;;;;4902913;28;92530;-77
2023/06/28 15:23:12;;;;;;;35.05;17.40;;;;;;;;;;4916107;28;91990;-77
2023/06/28 15:25:39;;;;;;;32.40;17.40;;;;;;;;;;4916505;28;92741;-77
2023/06/28 15:28:06;;;;;;;35.70;16.40;;;;;;;;;;4918608;28;92471;-77
2023/06/28 15:30:33;;;;;;;25.42;15.13;;;;;;;;;;4896355;28;94872;-77
2023/06/28 15:32:59;;;;;;;32.17;17.13;;;;;;;;;;4915224;28;92421;-78
2023/06/28 15:35:26;;;;;;;26.65;14.77;;;;;;;;;;4911655;28;93770;-78
2023/06/28 15:37:53;;;;;;;28.70;15.63;;;;;;;;;;4904302;28;95527;-77
2023/06/28 15:40:19;;;;;;;27.02;15.13;;;;;;;;;;4902904;28;92894;-77
2023/06/28 15:42:46;;;;;;;30.25;15.27;;;;;;;;;;4920091;28;92168;-78
2023/06/28 15:45:12;;;;;;;31.73;16.88;;;;;;;;;;4919705;28;93095;-77
2023/06/28 15:47:39;;;;;;;28.33;13.82;;;;;;;;;;4916626;28;93005;-77
2023/06/28 15:50:05;;;;;;;32.20;15.45;;;;;;;;;;4920675;28;93068;-77
2023/06/28 15:52:32;;;;;;;27.48;15.23;;;;;;;;;;4909073;28;92502;-77
2023/06/28 15:55:01;;;;;;;25.80;14.82;;;;;;;;;;4910474;28;94803;-77
2023/06/28 15:57:28;;;;;;;30.30;15.10;;;;;;;;;;4917192;28;94006;-77
2023/06/28 15:59:55;;;;;;;24.15;14.50;;;;;;;;;;4932460;28;94867;-77
2023/06/28 16:02:21;;;;;;;29.02;14.60;;;;;;;;;;4898143;28;92494;-77
2023/06/28 16:04:48;;;;;;;31.75;14.32;;;;;;;;;;4904637;28;92275;-77
2023/06/28 16:07:15;;;;;;;20.92;13.60;;;;;;;;;;4899370;28;92941;-77
2023/06/28 16:09:42;;;;;;;25.63;14.57;;;;;;;;;;4916651;28;92332;-77
2023/06/28 16:12:09;;;;;;;29.90;15.57;;;;;;;;;;4918448;28;92059;-78
2023/06/28 16:14:35;;;;;;;33.83;14.90;;;;;;;;;;4897702;28;93822;-77
2023/06/28 16:17:03;;;;;;;29.50;14.98;;;;;;;;;;4901630;28;95261;-77
2023/06/28 16:19:29;;;;;;;27.73;14.30;;;;;;;;;;4897649;28;95037;-77
2023/06/28 16:21:56;;;;;;;31.33;14.93;;;;;;;;;;4911929;28;92421;-78
2023/06/28 16:24:23;;;;;;;25.88;13.07;;;;;;;;;;4910957;28;92554;-77
2023/06/28 16:26:50;;;;;;;32.00;14.07;;;;;;;;;;4901307;28;94588;-78
2023/06/28 16:29:17;;;;;;;24.88;12.98;;;;;;;;;;4918151;28;92414;-78
2023/06/28 16:31:43;;;;;;;22.50;12.93;;;;;;;;;;4900820;28;92283;-77
2023/06/28 16:34:10;;;;;;;21.73;13.20;;;;;;;;;;4917033;28;92463;-78
2023/06/28 16:36:41;;;;;;;27.02;13.10;;;;;;;;;;4914820;28;92373;-78
2023/06/28 16:39:08;;;;;;;24.57;13.70;;;;;;;;;;4899643;28;92764;-78
2023/06/28 16:41:35;;;;;;;22.33;13.50;;;;;;;;;;4911919;28;92839;-78
2023/06/28 16:44:01;;;;;;;25.70;14.10;;;;;;;;;;4918375;28;94783;-77
2023/06/28 16:46:28;;;;;;;27.20;13.85;;;;;;;;;;4915811;28;94759;-78
2023/06/28 16:48:54;;;;;;;25.73;12.98;;;;;;;;;;4899178;28;92283;-77
2023/06/28 16:51:21;;;;;;;25.77;13.30;;;;;;;;;;4906924;28;92330;-78
2023/06/28 16:53:48;;;;;;;25.42;13.55;;;;;;;;;;4909568;28;93072;-77
2023/06/28 16:56:14;;;;;;;21.38;12.32;;;;;;;;;;4915218;28;93438;-77
2023/06/28 16:58:41;;;;;;;25.85;13.35;;;;;;;;;;4886037;28;92374;-77
2023/06/28 17:01:08;;;;;;;23.50;12.95;;;;;;;;;;4898823;28;96131;-78
2023/06/28 17:03:40;;;;;;;23.00;13.23;;;;;;;;;;4910918;28;92279;-77
2023/06/28 17:06:07;;;;;;;;;;;;;;;;;;4922887;28;92312;-78
2023/06/28 17:08:34;;;;;;;27.58;14.65;;;;;;;;;;4904295;28;120792;-77
2023/06/28 17:11:01;;;;;;;24.92;13.38;;;;;;;;;;4913599;28;94449;-77
2023/06/28 17:13:27;;;;;;;32.97;16.20;;;;;;;;;;4915366;28;92416;-77
2023/06/28 17:15:54;;;;;;;32.65;16.05;;;;;;;;;;4894715;28;92408;-77
2023/06/28 17:18:21;;;;;;;35.55;15.93;;;;;;;;;;4887665;28;92422;-77
2023/06/28 17:20:47;;;;;;;28.25;13.73;;;;;;;;;;4909392;28;92704;-77
2023/06/28 17:23:16;;;;;;;27.40;14.05;;;;;;;;;;4915490;28;93569;-77
2023/06/28 17:25:44;;;;;;;26.98;15.93;;;;;;;;;;4901843;28;93411;-77
2023/06/28 17:28:10;;;;;;;34.50;16.88;;;;;;;;;;4917315;28;92712;-77
2023/06/28 17:30:38;;;;;;;29.65;14.45;;;;;;;;;;4915217;28;92323;-77
2023/06/28 17:33:04;;;;;;;25.15;14.07;;;;;;;;;;4906329;28;95106;-77
2023/06/28 17:35:31;;;;;;;22.63;13.38;;;;;;;;;;4907889;28;94067;-77
2023/06/28 17:37:58;;;;;;;30.88;14.68;;;;;;;;;;4895700;28;92463;-77
2023/06/28 17:40:24;;;;;;;26.60;14.10;;;;;;;;;;4916198;28;92399;-77
2023/06/28 17:42:51;;;;;;;29.60;15.48;;;;;;;;;;4917367;28;92435;-77
2023/06/28 17:45:17;;;;;;;29.90;14.65;;;;;;;;;;4894204;28;93621;-78
2023/06/28 17:47:44;;;;;;;24.10;14.10;;;;;;;;;;4902061;28;94331;-77
2023/06/28 17:50:10;;;;;;;36.40;14.00;;;;;;;;;;4908844;28;92128;-78
2023/06/28 17:52:37;;;;;;;27.70;13.70;;;;;;;;;;4917843;28;92545;-78
2023/06/28 17:55:03;;;;;;;27.13;13.40;;;;;;;;;;4902135;28;94269;-78
2023/06/28 17:57:30;;;;;;;29.85;14.07;;;;;;;;;;4899460;28;95931;-78
2023/06/28 17:59:57;;;;;;;28.67;13.02;;;;;;;;;;4906321;28;93184;-78
2023/06/28 18:02:23;;;;;;;25.48;13.43;;;;;;;;;;4919388;28;92929;-78
2023/06/28 18:04:50;;;;;;;24.52;13.00;;;;;;;;;;4907446;28;94401;-78
2023/06/28 18:07:16;;;;;;;21.95;12.57;;;;;;;;;;4919844;28;92154;-77
2023/06/28 18:09:43;;;;;;;20.13;12.90;;;;;;;;;;4915964;28;91901;-77
2023/06/28 18:12:12;;;;;;;26.95;13.45;;;;;;;;;;4911938;28;92509;-78
2023/06/28 18:14:42;;;;;;;25.45;12.48;;;;;;;;;;4914325;28;91978;-77
2023/06/28 18:17:09;;;;;;;19.50;12.35;;;;;;;;;;4910253;28;92421;-77
2023/06/28 18:19:38;;;;;;;27.88;13.38;;;;;;;;;;4905754;28;92497;-78
2023/06/28 18:22:06;;;;;;;24.90;12.90;;;;;;;;;;4905345;28;94919;-78
2023/06/28 18:24:33;;;;;;;21.02;11.95;;;;;;;;;;4918190;28;92271;-78
2023/06/28 18:27:00;;;;;;;28.35;13.85;;;;;;;;;;4916542;28;94228;-78
2023/06/28 18:29:27;;;;;;;23.10;12.60;;;;;;;;;;4924403;28;92423;-78
2023/06/28 18:31:53;;;;;;;27.55;12.68;;;;;;;;;;4926629;28;92166;-78
2023/06/28 18:34:20;;;;;;;19.33;10.45;;;;;;;;;;4906947;28;92443;-78
2023/06/28 18:36:46;;;;;;;26.45;12.02;;;;;;;;;;4924831;28;93372;-78
2023/06/28 18:39:18;;;;;;;18.15;10.73;;;;;;;;;;4924619;28;92150;-78
2023/06/28 18:41:44;;;;;;;19.52;11.35;;;;;;;;;;4920944;28;92868;-79
2023/06/28 18:44:11;;;;;;;21.15;11.57;;;;;;;;;;4904695;28;94584;-78
2023/06/28 18:46:38;;;;;;;18.80;11.00;;;;;;;;;;4914491;28;94834;-78
2023/06/28 18:49:05;;;;;;;22.70;12.15;;;;;;;;;;4905135;28;94638;-78
2023/06/28 18:51:35;;;;;;;21.00;11.77;;;;;;;;;;4923482;28;92295;-78
2023/06/28 18:54:03;;;;;;;22.58;12.40;;;;;;;;;;4923952;28;92592;-78
2023/06/28 18:56:30;;;;;;;19.10;10.95;;;;;;;;;;4902193;28;94015;-78
2023/06/28 18:58:57;;;;;;;24.35;14.18;;;;;;;;;;4914940;28;92827;-78
2023/06/28 19:01:23;;;;;;;18.33;12.20;;;;;;;;;;4907945;28;92488;-77
2023/06/28 19:03:50;;;;;;;27.92;13.00;;;;;;;;;;4914843;28;91981;-79
2023/06/28 19:06:16;;;;;;;20.10;11.38;;;;;;;;;;4914662;28;92347;-78
2023/06/28 19:08:43;;;;;;;31.60;13.15;;;;;;;;;;4917323;28;92377;-78
2023/06/28 19:11:09;;;;;;;21.02;12.75;;;;;;;;;;4898322;28;96824;-77
2023/06/28 19:13:39;;;;;;;20.95;12.07;;;;;;;;;;4908875;28;92943;-78
2023/06/28 19:16:05;;;;;;;23.67;13.07;;;;;;;;;;4919322;28;95901;-78
2023/06/28 19:18:32;;;;;;;29.35;12.98;;;;;;;;;;4900058;28;92560;-77
2023/06/28 19:21:01;;;;;;;25.02;11.90;;;;;;;;;;4906600;28;93976;-78
2023/06/28 19:23:28;;;;;;;25.10;11.85;;;;;;;;;;4903426;28;93179;-78
2023/06/28 19:25:54;;;;;;;25.35;12.50;;;;;;;;;;4904559;28;95547;-77
2023/06/28 19:28:21;;;;;;;17.65;10.88;;;;;;;;;;4917689;28;91705;-77
2023/06/28 19:30:48;;;;;;;23.52;11.43;;;;;;;;;;4915027;28;94810;-77
2023/06/28 19:33:15;;;;;;;19.15;11.10;;;;;;;;;;4899615;28;92609;-77
2023/06/28 19:35:42;;;;;;;20.85;11.77;;;;;;;;;;4915446;28;94810;-77
2023/06/28 19:38:09;;;;;;;23.08;11.95;;;;;;;;;;4917469;28;92129;-77
2023/06/28 19:40:36;;;;;;;19.73;11.52;;;;;;;;;;4915594;28;93577;-77
2023/06/28 19:43:02;;;;;;;25.20;11.52;;;;;;;;;;4916988;28;92579;-77
2023/06/28 19:45:29;;;;;;;18.77;10.95;;;;;;;;;;4916182;28;93616;-77
2023/06/28 19:47:57;;;;;;;21.60;11.10;;;;;;;;;;4899627;28;92418;-77
2023/06/28 19:50:23;;;;;;;19.77;9.88;;;;;;;;;;4897020;28;93358;-77
2023/06/28 19:52:50;;;;;;;22.13;11.07;;;;;;;;;;4884609;28;92049;-77
2023/06/28 19:55:16;;;;;;;23.42;10.90;;;;;;;;;;4911001;28;93717;-77
2023/06/28 19:57:43;;;;;;;18.30;10.13;;;;;;;;;;4919802;28;93942;-77
2023/06/28 20:00:10;;;;;;;19.27;10.20;;;;;;;;;;4900621;28;94732;-77
2023/06/28 20:02:42;;;;;;;16.27;10.48;;;;;;;;;;4908376;28;92872;-77
2023/06/28 20:05:09;;;;;;;18.67;10.55;;;;;;;;;;4916696;28;93334;-78
2023/06/28 20:07:36;;;;;;;19.08;10.35;;;;;;;;;;4910682;28;92498;-77
2023/06/28 20:10:03;;;;;;;16.23;9.30;;;;;;;;;;4906685;28;92297;-77
2023/06/28 20:12:29;;;;;;;21.05;10.18;;;;;;;;;;4907809;28;96008;-78
2023/06/28 20:14:58;;;;;;;18.45;9.68;;;;;;;;;;4906173;28;92446;-77
2023/06/28 20:17:25;;;;;;;18.33;10.10;;;;;;;;;;4911152;28;91847;-77
2023/06/28 20:19:51;;;;;;;18.20;9.65;;;;;;;;;;4914435;28;92277;-77
2023/06/28 20:22:18;;;;;;;16.67;9.98;;;;;;;;;;4900867;28;92543;-77
2023/06/28 20:24:44;;;;;;;19.10;11.55;;;;;;;;;;4906350;28;94922;-78
2023/06/28 20:27:11;;;;;;;15.85;9.63;;;;;;;;;;4906239;28;93974;-77
2023/06/28 20:29:38;;;;;;;18.95;8.77;;;;;;;;;;4921078;28;92478;-77
2023/06/28 20:32:05;;;;;;;21.13;10.05;;;;;;;;;;4911602;28;92394;-77
2023/06/28 20:34:32;;;;;;;16.33;9.75;;;;;;;;;;4902148;28;92508;-77
2023/06/28 20:36:58;;;;;;;17.90;10.90;;;;;;;;;;4919692;28;92490;-77
2023/06/28 20:39:25;;;;;;;22.30;11.25;;;;;;;;;;4918829;28;92409;-77
2023/06/28 20:41:52;;;;;;;16.90;10.07;;;;;;;;;;4898728;28;93995;-77
2023/06/28 20:44:19;;;;;;;18.13;10.60;;;;;;;;;;4917007;28;92447;-77
2023/06/28 20:46:46;;;;;;;21.02;10.82;;;;;;;;;;4912508;28;92897;-77
2023/06/28 20:49:12;;;;;;;22.33;9.98;;;;;;;;;;4905341;28;94876;-77
2023/06/28 20:51:39;;;;;;;16.23;9.52;;;;;;;;;;4904471;28;93170;-77
2023/06/28 20:54:06;;;;;;;23.60;9.65;;;;;;;;;;4890119;28;93653;-77
2023/06/28 20:56:32;;;;;;;27.30;9.95;;;;;;;;;;4909784;28;93131;-77
2023/06/28 20:58:59;;;;;;;18.85;10.60;;;;;;;;;;4923557;28;92285;-77
2023/06/28 21:01:26;;;;;;;20.08;11.57;;;;;;;;;;4901540;28;94060;-77
2023/06/28 21:03:53;;;;;;;19.23;10.27;;;;;;;;;;4920680;28;93097;-77
2023/06/28 21:06:21;;;;;;;23.02;11.80;;;;;;;;;;4925099;28;92583;-77
2023/06/28 21:08:50;;;;;;;18.95;11.40;;;;;;;;;;4926324;28;92201;-78
2023/06/28 21:11:16;;;;;;;21.27;10.93;;;;;;;;;;4924954;28;94357;-78
2023/06/28 21:13:43;;;;;;;21.90;11.75;;;;;;;;;;4906911;28;94088;-78
2023/06/28 21:16:09;;;;;;;26.20;13.45;;;;;;;;;;4923855;28;92166;-77
2023/06/28 21:18:42;;;;;;;27.83;13.07;;;;;;;;;;4920886;28;92563;-77
2023/06/28 21:21:09;;;;;;;17.60;11.60;;;;;;;;;;4914943;28;92301;-77
2023/06/28 21:23:39;;;;;;;17.65;10.82;;;;;;;;;;4919980;28;94326;-78
2023/06/28 21:26:06;;;;;;;22.23;11.73;;;;;;;;;;4930308;28;93036;-78
2023/06/28 21:28:32;;;;;;;25.63;11.98;;;;;;;;;;4933231;28;92122;-77
2023/06/28 21:30:59;;;;;;;20.42;11.50;;;;;;;;;;4931683;28;92018;-77
2023/06/28 21:33:25;;;;;;;21.00;10.63;;;;;;;;;;4925994;28;91889;-77
2023/06/28 21:35:52;;;;;;;17.27;10.88;;;;;;;;;;4900109;28;94669;-77
2023/06/28 21:38:18;;;;;;;14.55;10.38;;;;;;;;;;4911665;28;94832;-78
2023/06/28 21:40:45;;;;;;;21.90;10.73;;;;;;;;;;4910389;28;96418;-78
2023/06/28 21:43:12;;;;;;;17.83;11.48;;;;;;;;;;4923810;28;92286;-77
2023/06/28 21:45:38;;;;;;;16.58;11.32;;;;;;;;;;4925741;28;92403;-77
2023/06/28 21:48:05;;;;;;;24.38;11.73;;;;;;;;;;4913679;28;92432;-77
2023/06/28 21:50:32;;;;;;;19.60;11.70;;;;;;;;;;4918962;28;92095;-77
2023/06/28 21:52:58;;;;;;;20.63;10.90;;;;;;;;;;4900883;28;93781;-77
2023/06/28 21:55:25;;;;;;;21.90;11.15;;;;;;;;;;4924135;28;92146;-77
2023/06/28 21:57:52;;;;;;;16.23;10.60;;;;;;;;;;4906038;28;93881;-77
2023/06/28 22:00:19;;;;;;;14.73;10.82;;;;;;;;;;4904280;28;92448;-77
2023/06/28 22:02:46;;;;;;;16.50;12.05;;;;;;;;;;4902149;28;94756;-77
2023/06/28 22:05:12;;;;;;;15.20;10.40;;;;;;;;;;4896939;28;95169;-77
2023/06/28 22:07:40;;;;;;;17.50;9.93;;;;;;;;;;4913575;28;92111;-78
2023/06/28 22:10:08;;;;;;;16.73;11.15;;;;;;;;;;4927244;28;92273;-78
2023/06/28 22:12:34;;;;;;;15.45;10.55;;;;;;;;;;4920720;28;92354;-77
2023/06/28 22:15:04;;;;;;;18.60;9.80;;;;;;;;;;4924405;28;92162;-78
2023/06/28 22:17:31;;;;;;;22.48;12.75;;;;;;;;;;4913419;28;91999;-77
2023/06/28 22:19:58;;;;;;;22.27;12.80;;;;;;;;;;4930453;28;92227;-77
2023/06/28 22:22:25;;;;;;;25.08;12.45;;;;;;;;;;4903513;28;92442;-77
2023/06/28 22:24:52;;;;;;;17.08;11.27;;;;;;;;;;4925659;28;93087;-77
2023/06/28 22:27:18;;;;;;;19.25;11.50;;;;;;;;;;4927278;28;94700;-77
2023/06/28 22:29:45;;;;;;;19.05;11.63;;;;;;;;;;4925587;28;93225;-77
2023/06/28 22:32:14;;;;;;;28.67;12.90;;;;;;;;;;4926035;28;92248;-78
2023/06/28 22:34:40;;;;;;;18.10;11.45;;;;;;;;;;4908984;28;92662;-78
2023/06/28 22:37:07;;;;;;;14.93;11.25;;;;;;;;;;4907717;28;94151;-77
2023/06/28 22:39:33;;;;;;;17.85;11.85;;;;;;;;;;4928158;28;94351;-78
2023/06/28 22:42:00;;;;;;;15.75;10.73;;;;;;;;;;4902580;28;92556;-77
2023/06/28 22:44:26;;;;;;;20.05;11.00;;;;;;;;;;4917203;28;93769;-77
2023/06/28 22:46:54;;;;;;;19.77;10.80;;;;;;;;;;4915956;28;92867;-77
2023/06/28 22:49:21;;;;;;;16.40;10.48;;;;;;;;;;4909947;28;93415;-77
2023/06/28 22:51:52;;;;;;;17.05;11.35;;;;;;;;;;4920169;28;95377;-77
2023/06/28 22:54:29;;;;;;;17.30;10.70;;;;;;;;;;4906085;28;92933;-78
2023/06/28 22:56:56;;;;;;;16.15;10.80;;;;;;;;;;4912241;28;93191;-77
2023/06/28 22:59:22;;;;;;;18.83;10.52;;;;;;;;;;4890329;28;92568;-78
2023/06/28 23:01:49;;;;;;;22.63;11.10;;;;;;;;;;4911390;28;92547;-77
2023/06/28 23:04:16;;;;;;;14.70;10.68;;;;;;;;;;4919276;28;93886;-78
2023/06/28 23:06:42;;;;;;;11.35;9.82;;;;;;;;;;4921993;28;92394;-77
2023/06/28 23:09:09;;;;;;;15.90;10.82;;;;;;;;;;4921918;28;91947;-77
2023/06/28 23:11:36;;;;;;;16.30;9.82;;;;;;;;;;4922445;28;94178;-77
2023/06/28 23:14:03;;;;;;;17.95;10.55;;;;;;;;;;4910314;28;92790;-77
2023/06/28 23:16:33;;;;;;;15.23;10.07;;;;;;;;;;4888033;28;94891;-77
2023/06/28 23:19:02;;;;;;;19.85;11.00;;;;;;;;;;4917002;28;93969;-77
2023/06/28 23:21:33;;;;;;;18.40;12.35;;;;;;;;;;4915646;28;92438;-77